createdAt,value
2022-09-20T00:00:41.846Z,18.70
2022-09-20T00:03:09.878Z,18.74
2022-09-20T00:05:36.785Z,18.77
2022-09-20T00:08:03.512Z,18.80
2022-09-20T00:10:29.910Z,18.80
2022-09-20T00:12:56.370Z,18.78
2022-09-20T00:15:22.860Z,18.80
2022-09-20T00:17:49.195Z,18.78
2022-09-20T00:20:17.065Z,18.75
2022-09-20T00:22:43.395Z,18.80
2022-09-20T00:25:09.725Z,18.69
2022-09-20T00:27:36.038Z,18.70
2022-09-20T00:30:02.390Z,18.70
2022-09-20T00:32:28.743Z,18.72
2022-09-20T00:34:55.073Z,18.73
2022-09-20T00:37:22.693Z,18.71
2022-09-20T00:39:49.034Z,18.65
2022-09-20T00:42:15.825Z,18.62
2022-09-20T00:44:44.527Z,18.64
2022-09-20T00:47:14.089Z,18.66
2022-09-20T00:49:40.612Z,18.70
2022-09-20T00:52:07.225Z,18.67
2022-09-20T00:54:35.977Z,18.68
2022-09-20T00:57:02.363Z,18.63
2022-09-20T00:59:30.914Z,18.65
2022-09-20T01:01:59.771Z,18.62
2022-09-20T01:04:27.977Z,18.57
2022-09-20T01:06:56.969Z,18.56
2022-09-20T01:09:23.334Z,18.57
2022-09-20T01:11:52.015Z,18.58
2022-09-20T01:14:18.905Z,18.58
2022-09-20T01:16:45.783Z,18.55
2022-09-20T01:19:16.025Z,18.58
2022-09-20T01:21:42.441Z,18.53
2022-09-20T01:24:15.081Z,18.47
2022-09-20T01:26:57.920Z,18.46
2022-09-20T01:29:35.092Z,18.43
2022-09-20T01:32:02.974Z,18.39
2022-09-20T01:34:31.785Z,18.35
2022-09-20T01:37:02.145Z,18.48
2022-09-20T01:39:33.950Z,18.50
2022-09-20T01:42:03.322Z,18.40
2022-09-20T01:44:35.761Z,18.36
2022-09-20T01:47:05.631Z,18.44
2022-09-20T01:49:41.184Z,18.44
2022-09-20T01:52:27.587Z,18.48
2022-09-20T01:55:08.858Z,18.41
2022-09-20T01:57:55.769Z,18.37
2022-09-20T02:00:26.430Z,18.42
2022-09-20T02:03:04.802Z,18.44
2022-09-20T02:05:42.234Z,18.43
2022-09-20T02:08:14.015Z,18.41
2022-09-20T02:10:47.347Z,18.35
2022-09-20T02:13:19.487Z,18.33
2022-09-20T02:15:59.738Z,18.33
2022-09-20T02:18:37.780Z,18.28
2022-09-20T02:21:08.843Z,18.27
2022-09-20T02:23:40.404Z,18.33
2022-09-20T02:26:14.856Z,18.38
2022-09-20T02:28:51.658Z,18.41
2022-09-20T02:31:23.355Z,18.42
2022-09-20T02:34:02.888Z,18.44
2022-09-20T02:36:36.039Z,18.44
2022-09-20T02:39:07.611Z,18.43
2022-09-20T02:41:48.801Z,18.43
2022-09-20T02:44:18.443Z,18.28
2022-09-20T02:46:50.626Z,18.27
2022-09-20T02:49:22.202Z,18.27
2022-09-20T02:51:52.167Z,18.32
2022-09-20T02:54:22.280Z,18.29
2022-09-20T02:56:54.840Z,18.30
2022-09-20T02:59:26.982Z,18.23
2022-09-20T03:02:00.643Z,18.13
2022-09-20T03:04:35.675Z,18.15
2022-09-20T03:07:06.027Z,18.15
2022-09-20T03:09:35.300Z,18.14
2022-09-20T03:12:07.871Z,18.22
2022-09-20T03:14:36.863Z,18.18
2022-09-20T03:17:11.544Z,18.15
2022-09-20T03:19:48.315Z,18.09
2022-09-20T03:22:19.994Z,18.10
2022-09-20T03:24:54.768Z,18.09
2022-09-20T03:27:25.799Z,18.09
2022-09-20T03:30:02.141Z,18.13
2022-09-20T03:32:36.170Z,18.14
2022-09-20T03:35:06.537Z,18.12
2022-09-20T03:37:41.724Z,18.12
2022-09-20T03:40:23.418Z,18.15
2022-09-20T03:42:52.107Z,18.10
2022-09-20T03:45:28.674Z,18.10
2022-09-20T03:48:03.261Z,18.07
2022-09-20T03:50:35.695Z,18.09
2022-09-20T03:53:13.574Z,18.09
2022-09-20T03:55:49.984Z,18.12
2022-09-20T03:58:23.281Z,18.15
2022-09-20T04:00:58.504Z,18.07
2022-09-20T04:03:34.454Z,18.10
2022-09-20T04:06:09.464Z,18.15
2022-09-20T04:08:44.112Z,18.01
2022-09-20T04:11:16.433Z,17.84
2022-09-20T04:13:46.145Z,17.77
2022-09-20T04:16:22.154Z,17.70
2022-09-20T04:18:53.380Z,17.62
2022-09-20T04:21:23.539Z,17.65
2022-09-20T04:23:52.198Z,17.60
2022-09-20T04:26:22.052Z,17.54
2022-09-20T04:28:51.847Z,17.71
2022-09-20T04:31:25.601Z,17.76
2022-09-20T04:33:54.446Z,17.77
2022-09-20T04:36:31.199Z,17.72
2022-09-20T04:39:02.429Z,17.63
2022-09-20T04:41:40.608Z,17.63
2022-09-20T04:44:20.463Z,17.47
2022-09-20T04:47:01.633Z,17.33
2022-09-20T04:49:42.825Z,17.34
2022-09-20T04:52:23.054Z,17.35
2022-09-20T04:55:04.006Z,17.28
2022-09-20T04:57:46.822Z,17.30
2022-09-20T05:00:15.970Z,17.28
2022-09-20T05:02:54.022Z,17.44
2022-09-20T05:05:35.575Z,17.35
2022-09-20T05:08:16.743Z,17.47
2022-09-20T05:10:51.275Z,17.37
2022-09-20T05:13:26.311Z,17.38
2022-09-20T05:15:57.587Z,17.37
2022-09-20T05:18:36.221Z,17.36
2022-09-20T05:21:10.322Z,17.20
2022-09-20T05:23:51.512Z,17.19
2022-09-20T05:26:26.566Z,17.26
2022-09-20T05:28:56.142Z,17.45
2022-09-20T05:31:26.769Z,17.56
2022-09-20T05:33:57.410Z,17.57
2022-09-20T05:36:32.313Z,17.36
2022-09-20T05:39:07.355Z,17.59
2022-09-20T05:41:40.303Z,17.71
2022-09-20T05:44:11.664Z,17.60
2022-09-20T05:46:45.098Z,17.57
2022-09-20T05:49:16.286Z,17.60
2022-09-20T05:51:52.671Z,17.67
2022-09-20T05:54:33.583Z,17.69
2022-09-20T05:57:07.773Z,17.68
2022-09-20T05:59:41.601Z,17.76
2022-09-20T06:02:14.285Z,17.84
2022-09-20T06:04:44.618Z,17.82
2022-09-20T06:07:21.339Z,17.87
2022-09-20T06:09:58.154Z,17.92
2022-09-20T06:12:35.516Z,17.91
2022-09-20T06:15:11.383Z,17.92
2022-09-20T06:17:42.326Z,17.84
2022-09-20T06:20:15.904Z,17.69
2022-09-20T06:22:44.138Z,17.87
2022-09-20T06:25:15.289Z,18.02
2022-09-20T06:27:44.313Z,18.03
2022-09-20T06:30:15.388Z,18.09
2022-09-20T06:32:52.677Z,18.04
2022-09-20T06:35:19.675Z,17.97
2022-09-20T06:37:48.787Z,18.01
2022-09-20T06:40:21.579Z,18.01
2022-09-20T06:42:49.275Z,17.87
2022-09-20T06:45:15.609Z,17.84
2022-09-20T06:47:42.081Z,18.01
2022-09-20T06:50:14.420Z,18.04
2022-09-20T06:52:41.871Z,18.07
2022-09-20T06:55:13.924Z,18.08
2022-09-20T06:57:40.265Z,18.14
2022-09-20T07:00:08.660Z,18.09
2022-09-20T07:02:35.084Z,17.75
2022-09-20T07:05:01.553Z,17.54
2022-09-20T07:07:27.961Z,17.96
2022-09-20T07:09:54.373Z,18.13
2022-09-20T07:12:20.727Z,18.21
2022-09-20T07:14:47.057Z,18.22
2022-09-20T07:17:14.727Z,18.20
2022-09-20T07:19:41.118Z,18.27
2022-09-20T07:22:07.480Z,18.23
2022-09-20T07:24:33.831Z,18.25
2022-09-20T07:27:01.083Z,18.31
2022-09-20T07:29:28.016Z,18.32
2022-09-20T07:31:55.517Z,18.38
2022-09-20T07:34:23.213Z,18.42
2022-09-20T07:36:50.287Z,18.45
2022-09-20T07:39:16.733Z,18.52
2022-09-20T07:41:43.461Z,18.49
2022-09-20T07:44:13.254Z,18.51
2022-09-20T07:46:39.756Z,18.51
2022-09-20T07:49:06.364Z,18.50
2022-09-20T07:51:33.985Z,18.51
2022-09-20T07:54:00.416Z,18.51
2022-09-20T07:56:26.825Z,18.56
2022-09-20T07:58:53.285Z,18.66
2022-09-20T08:01:19.951Z,18.69
2022-09-20T08:03:46.339Z,18.75
2022-09-20T08:06:13.084Z,18.78
2022-09-20T08:08:40.830Z,18.84
2022-09-20T08:11:08.808Z,18.88
2022-09-20T08:16:23.243Z,18.93
2022-09-20T08:18:50.792Z,18.92
2022-09-20T08:21:17.835Z,18.99
2022-09-20T08:23:46.312Z,18.79
2022-09-20T08:26:13.984Z,18.68
2022-09-20T08:28:40.868Z,18.69
2022-09-20T08:31:08.585Z,18.65
2022-09-20T08:33:35.611Z,18.63
2022-09-20T08:36:02.268Z,18.76
2022-09-20T08:41:19.765Z,18.93
2022-09-20T08:43:50.017Z,18.72
2022-09-20T08:46:23.261Z,18.57
2022-09-20T08:48:50.103Z,18.42
2022-09-20T08:51:22.720Z,18.42
2022-09-20T08:53:50.700Z,18.44
2022-09-20T08:56:19.129Z,18.44
2022-09-20T08:58:45.635Z,18.54
2022-09-20T09:01:14.153Z,18.58
2022-09-20T09:03:40.532Z,18.62
2022-09-20T09:06:14.190Z,18.66
2022-09-20T09:08:43.327Z,18.70
2022-09-20T09:11:13.413Z,18.73
2022-09-20T09:13:44.581Z,18.73
2022-09-20T09:16:12.729Z,18.73
2022-09-20T09:18:40.426Z,18.75
2022-09-20T09:21:07.639Z,18.76
2022-09-20T09:23:38.887Z,18.79
2022-09-20T09:26:05.354Z,18.80
2022-09-20T09:28:31.844Z,18.84
2022-09-20T09:31:11.919Z,19.04
2022-09-20T09:33:42.830Z,18.93
2022-09-20T09:36:13.767Z,18.76
2022-09-20T09:38:41.349Z,18.73
2022-09-20T09:41:20.216Z,18.66
2022-09-20T09:43:57.468Z,18.68
2022-09-20T09:46:25.256Z,18.74
2022-09-20T09:49:03.909Z,18.78
2022-09-20T09:51:30.584Z,18.78
2022-09-20T09:53:56.955Z,18.81
2022-09-20T09:56:30.494Z,18.93
2022-09-20T09:59:06.587Z,18.98
2022-09-20T10:01:38.944Z,19.00
2022-09-20T10:04:11.849Z,19.01
2022-09-20T10:06:43.661Z,19.03
2022-09-20T10:09:19.976Z,19.04
2022-09-20T10:11:53.832Z,19.03
2022-09-20T10:14:25.077Z,19.06
2022-09-20T10:17:01.177Z,19.07
2022-09-20T10:19:41.117Z,19.06
2022-09-20T10:22:11.037Z,19.04
2022-09-20T10:24:43.481Z,19.07
2022-09-20T10:27:17.184Z,19.09
2022-09-20T10:29:52.134Z,19.05
2022-09-20T10:32:27.568Z,18.95
2022-09-20T10:34:59.355Z,19.03
2022-09-20T10:37:28.899Z,19.00
2022-09-20T10:40:03.014Z,18.96
2022-09-20T10:42:32.891Z,18.92
2022-09-20T10:45:04.391Z,18.92
2022-09-20T10:47:34.150Z,18.91
2022-09-20T10:50:03.669Z,18.92
2022-09-20T10:52:44.198Z,18.93
2022-09-20T10:55:19.213Z,18.94
2022-09-20T10:57:55.815Z,18.95
2022-09-20T11:00:23.230Z,18.94
2022-09-20T11:02:57.372Z,19.00
2022-09-20T11:05:29.720Z,19.12
2022-09-20T11:08:02.017Z,19.17
2022-09-20T11:10:31.205Z,19.14
2022-09-20T11:13:00.440Z,19.13
2022-09-20T11:15:30.350Z,19.11
2022-09-20T11:18:03.860Z,19.13
2022-09-20T11:20:32.377Z,19.17
2022-09-20T11:23:02.525Z,19.18
2022-09-20T11:25:33.236Z,19.14
2022-09-20T11:28:02.599Z,19.19
2022-09-20T11:30:30.148Z,19.25
2022-09-20T11:33:00.449Z,19.21
2022-09-20T11:35:33.200Z,19.24
2022-09-20T11:38:04.373Z,19.26
2022-09-20T11:40:32.753Z,19.29
2022-09-20T11:43:00.875Z,19.28
2022-09-20T11:45:28.868Z,19.28
2022-09-20T11:47:58.388Z,19.29
2022-09-20T11:50:39.241Z,19.26
2022-09-20T11:53:10.699Z,19.28
2022-09-20T11:55:42.385Z,19.26
2022-09-20T11:58:10.737Z,19.30
2022-09-20T12:00:38.588Z,19.39
2022-09-20T12:03:07.528Z,19.42
2022-09-20T12:05:35.985Z,19.40
2022-09-20T12:08:05.470Z,19.39
2022-09-20T12:10:33.166Z,19.39
2022-09-20T12:13:00.913Z,19.37
2022-09-20T12:15:29.684Z,19.35
2022-09-20T12:18:09.175Z,19.37
2022-09-20T12:20:50.826Z,19.37
2022-09-20T12:23:32.017Z,19.38
2022-09-20T12:26:02.113Z,19.40
2022-09-20T12:28:33.971Z,19.53
2022-09-20T12:31:15.219Z,19.66
2022-09-20T12:33:55.390Z,19.59
2022-09-20T12:36:21.755Z,19.49
2022-09-20T12:38:51.286Z,19.47
2022-09-20T12:41:27.909Z,19.54
2022-09-20T12:43:57.492Z,19.60
2022-09-20T12:46:26.664Z,19.53
2022-09-20T12:49:08.001Z,19.50
2022-09-20T12:51:34.355Z,19.58
2022-09-20T12:54:02.299Z,19.55
2022-09-20T12:56:30.108Z,19.54
2022-09-20T12:58:57.121Z,19.53
2022-09-20T13:01:29.789Z,19.60
2022-09-20T13:04:11.000Z,19.58
2022-09-20T13:06:37.417Z,19.55
2022-09-20T13:09:05.723Z,19.53
2022-09-20T13:11:37.999Z,19.53
2022-09-20T13:14:06.770Z,19.51
2022-09-20T13:16:39.779Z,19.55
2022-09-20T13:19:07.610Z,19.60
2022-09-20T13:21:36.940Z,19.63
2022-09-20T13:24:04.253Z,19.78
2022-09-20T13:26:33.841Z,19.87
2022-09-20T13:29:02.387Z,19.93
2022-09-20T13:31:30.433Z,20.00
2022-09-20T13:34:11.667Z,20.03
2022-09-20T13:36:38.181Z,20.07
2022-09-20T13:39:06.134Z,20.07
2022-09-20T13:41:32.661Z,20.03
2022-09-20T13:44:00.037Z,19.98
2022-09-20T13:46:30.519Z,19.94
2022-09-20T13:48:59.245Z,19.91
2022-09-20T13:51:26.490Z,19.82
2022-09-20T13:53:53.321Z,19.80
2022-09-20T13:56:21.488Z,19.78
2022-09-20T13:58:48.681Z,19.87
2022-09-20T14:01:29.928Z,19.91
2022-09-20T14:04:02.625Z,19.95
2022-09-20T14:06:29.155Z,19.99
2022-09-20T14:08:56.800Z,19.92
2022-09-20T14:11:24.980Z,19.96
2022-09-20T14:13:52.032Z,19.92
2022-09-20T14:16:18.854Z,19.89
2022-09-20T14:18:46.285Z,19.87
2022-09-20T14:21:17.455Z,19.81
2022-09-20T14:23:49.857Z,19.81
2022-09-20T14:26:24.738Z,19.78
2022-09-20T14:28:51.511Z,19.84
2022-09-20T14:31:20.853Z,19.90
2022-09-20T14:33:54.264Z,20.02
2022-09-20T14:36:24.914Z,20.07
2022-09-20T14:38:53.235Z,20.08
2022-09-20T14:41:27.668Z,20.07
2022-09-20T14:43:54.667Z,20.05
2022-09-20T14:46:28.548Z,20.03
2022-09-20T14:48:55.021Z,20.03
2022-09-20T14:51:23.583Z,20.03
2022-09-20T14:53:51.017Z,20.06
2022-09-20T14:56:25.587Z,20.05
2022-09-20T14:59:04.389Z,20.06
2022-09-20T15:01:31.427Z,20.05
2022-09-20T15:03:58.199Z,20.04
2022-09-20T15:06:25.937Z,20.03
2022-09-20T15:08:52.342Z,20.11
2022-09-20T15:11:18.925Z,20.03
2022-09-20T15:13:47.214Z,20.01
2022-09-20T15:16:21.067Z,19.99
2022-09-20T15:18:47.581Z,19.97
2022-09-20T15:21:13.890Z,19.96
2022-09-20T15:23:41.500Z,19.93
2022-09-20T15:26:07.962Z,19.94
2022-09-20T15:28:34.767Z,19.92
2022-09-20T15:31:01.109Z,19.93
2022-09-20T15:33:29.394Z,19.92
2022-09-20T15:35:55.768Z,19.90
2022-09-20T15:38:22.188Z,19.90
2022-09-20T15:40:50.054Z,19.88
2022-09-20T15:43:18.073Z,19.87
2022-09-20T15:45:47.863Z,19.84
2022-09-20T15:48:14.418Z,19.85
2022-09-20T15:50:40.868Z,19.84
2022-09-20T15:53:07.328Z,19.84
2022-09-20T15:55:36.009Z,19.84
2022-09-20T15:58:03.639Z,19.82
2022-09-20T16:00:30.132Z,19.82
2022-09-20T16:02:56.432Z,19.81
2022-09-20T16:05:22.884Z,19.81
2022-09-20T16:07:49.216Z,19.80
2022-09-20T16:10:15.826Z,19.78
2022-09-20T16:12:42.137Z,19.79
2022-09-20T16:15:10.405Z,19.77
2022-09-20T16:17:36.860Z,19.78
2022-09-20T16:20:03.233Z,19.77
2022-09-20T16:22:29.725Z,19.78
2022-09-20T16:24:56.355Z,19.77
2022-09-20T16:27:22.684Z,19.76
2022-09-20T16:29:49.021Z,19.76
2022-09-20T16:32:16.779Z,19.75
2022-09-20T16:34:43.194Z,19.75
2022-09-20T16:37:11.137Z,19.74
2022-09-20T16:39:37.823Z,19.74
2022-09-20T16:42:05.224Z,19.73
2022-09-20T16:44:31.908Z,19.73
2022-09-20T16:46:58.250Z,19.73
2022-09-20T16:49:26.022Z,19.74
2022-09-20T16:51:52.594Z,19.76
2022-09-20T16:54:19.104Z,19.77
2022-09-20T16:56:46.790Z,19.77
2022-09-20T16:59:13.735Z,19.77
2022-09-20T17:01:40.437Z,19.78
2022-09-20T17:04:07.109Z,19.80
2022-09-20T17:06:35.785Z,19.82
2022-09-20T17:09:02.600Z,19.76
2022-09-20T17:11:29.819Z,19.73
2022-09-20T17:13:56.582Z,19.73
2022-09-20T17:16:23.805Z,19.73
2022-09-20T17:18:51.665Z,19.71
2022-09-20T17:21:18.128Z,19.69
2022-09-20T17:23:50.750Z,19.68
2022-09-20T17:26:18.579Z,19.68
2022-09-20T17:28:46.011Z,19.68
2022-09-20T17:31:13.456Z,19.67
2022-09-20T17:33:40.052Z,19.66
2022-09-20T17:36:07.114Z,19.65
2022-09-20T17:38:34.104Z,19.65
2022-09-20T17:41:02.792Z,19.66
2022-09-20T17:43:29.650Z,19.65
2022-09-20T17:45:56.004Z,19.64
2022-09-20T17:48:22.412Z,19.64
2022-09-20T17:50:54.304Z,19.63
2022-09-20T17:53:20.767Z,19.62
2022-09-20T17:55:52.377Z,19.61
2022-09-20T17:58:20.019Z,19.60
2022-09-20T18:00:46.359Z,19.60
2022-09-20T18:03:12.701Z,19.60
2022-09-20T18:05:39.043Z,19.60
2022-09-20T18:08:05.454Z,19.59
2022-09-20T18:10:31.846Z,19.58
2022-09-20T18:12:58.262Z,19.58
2022-09-20T18:15:25.955Z,19.55
2022-09-20T18:17:54.507Z,19.56
2022-09-20T18:20:20.999Z,19.57
2022-09-20T18:22:47.620Z,19.56
2022-09-20T18:25:14.131Z,19.54
2022-09-20T18:27:40.474Z,19.54
2022-09-20T18:30:07.413Z,19.53
2022-09-20T18:32:35.037Z,19.53
2022-09-20T18:35:01.431Z,19.53
2022-09-20T18:37:27.782Z,19.53
2022-09-20T18:39:54.223Z,19.53
2022-09-20T18:42:20.566Z,19.52
2022-09-20T18:44:46.936Z,19.52
2022-09-20T18:47:13.288Z,19.52
2022-09-20T18:49:40.888Z,19.50
2022-09-20T18:52:07.221Z,19.50
2022-09-20T18:54:33.728Z,19.50
2022-09-20T18:57:00.617Z,19.49
2022-09-20T18:59:27.606Z,19.49
2022-09-20T19:02:03.918Z,19.47
2022-09-20T19:04:47.176Z,19.48
2022-09-20T19:07:16.539Z,19.47
2022-09-20T19:09:45.759Z,19.46
2022-09-20T19:12:16.271Z,19.47
2022-09-20T19:14:49.917Z,19.45
2022-09-20T19:17:17.703Z,19.46
2022-09-20T19:19:48.486Z,19.45
2022-09-20T19:22:21.226Z,19.45
2022-09-20T19:24:57.136Z,19.44
2022-09-20T19:27:24.071Z,19.45
2022-09-20T19:29:50.582Z,19.44
2022-09-20T19:32:17.569Z,19.43
2022-09-20T19:34:44.514Z,19.43
2022-09-20T19:37:20.058Z,19.42
2022-09-20T19:39:54.109Z,19.43
2022-09-20T19:42:27.383Z,19.42
2022-09-20T19:44:59.250Z,19.42
2022-09-20T19:47:30.466Z,19.42
2022-09-20T19:50:03.233Z,19.41
2022-09-20T19:52:31.105Z,19.40
2022-09-20T19:54:57.597Z,19.39
2022-09-20T19:57:28.301Z,19.40
2022-09-20T19:59:55.077Z,19.39
2022-09-20T20:02:21.610Z,19.39
2022-09-20T20:04:48.166Z,19.38
2022-09-20T20:07:20.300Z,19.38
2022-09-20T20:09:52.011Z,19.37
2022-09-20T20:12:25.720Z,19.37
2022-09-20T20:14:56.351Z,19.37
2022-09-20T20:17:30.529Z,19.35
2022-09-20T20:20:02.740Z,19.36
2022-09-20T20:22:36.638Z,19.37
2022-09-20T20:25:04.631Z,19.36
2022-09-20T20:27:30.956Z,19.35
2022-09-20T20:29:57.394Z,19.35
2022-09-20T20:32:23.858Z,19.34
2022-09-20T20:34:50.184Z,19.33
2022-09-20T20:37:16.508Z,19.34
2022-09-20T20:39:42.861Z,19.32
2022-09-20T20:42:10.571Z,19.32
2022-09-20T20:44:36.896Z,19.32
2022-09-20T20:47:03.895Z,19.32
2022-09-20T20:49:30.287Z,19.31
2022-09-20T20:51:56.619Z,19.30
2022-09-20T20:54:22.970Z,19.32
2022-09-20T20:56:49.302Z,19.30
2022-09-20T20:59:16.916Z,19.29
2022-09-20T21:01:43.531Z,19.29
2022-09-20T21:04:09.997Z,19.29
2022-09-20T21:06:36.866Z,19.28
2022-09-20T21:09:04.434Z,19.27
2022-09-20T21:11:31.618Z,19.27
2022-09-20T21:13:59.120Z,19.32
2022-09-20T21:16:27.854Z,19.27
2022-09-20T21:18:54.428Z,19.26
2022-09-20T21:21:21.788Z,19.25
2022-09-20T21:23:49.066Z,19.26
2022-09-20T21:26:15.947Z,19.24
2022-09-20T21:28:43.687Z,19.24
2022-09-20T21:31:10.673Z,19.24
2022-09-20T21:33:39.168Z,19.23
2022-09-20T21:36:05.798Z,19.24
2022-09-20T21:38:32.153Z,19.24
2022-09-20T21:41:06.686Z,19.22
2022-09-20T21:43:33.149Z,19.23
2022-09-20T21:45:59.608Z,19.23
2022-09-20T21:48:26.511Z,19.21
2022-09-20T21:50:59.480Z,19.21
2022-09-20T21:53:25.780Z,19.22
2022-09-20T21:55:55.333Z,19.21
2022-09-20T21:58:21.675Z,19.21
2022-09-20T22:00:55.376Z,19.18
2022-09-20T22:03:21.709Z,19.18
2022-09-20T22:05:48.098Z,19.17
2022-09-20T22:08:15.751Z,19.18
2022-09-20T22:10:42.044Z,19.16
2022-09-20T22:13:08.355Z,19.18
2022-09-20T22:15:34.745Z,19.16
2022-09-20T22:18:01.088Z,19.16
2022-09-20T22:20:27.401Z,19.16
2022-09-20T22:22:53.824Z,19.15
2022-09-20T22:25:21.508Z,19.15
2022-09-20T22:27:48.364Z,19.16
2022-09-20T22:30:14.708Z,19.15
2022-09-20T22:32:42.740Z,19.17
2022-09-20T22:35:09.204Z,19.15
2022-09-20T22:37:35.707Z,19.16
2022-09-20T22:40:02.229Z,19.14
2022-09-20T22:42:30.021Z,19.14
2022-09-20T22:44:56.542Z,19.13
2022-09-20T22:47:23.005Z,19.13
2022-09-20T22:49:49.328Z,19.14
2022-09-20T22:52:15.685Z,19.12
2022-09-20T22:54:42.129Z,19.12
2022-09-20T22:57:08.450Z,19.10
2022-09-20T22:59:36.151Z,19.11
2022-09-20T23:02:02.621Z,19.12
2022-09-20T23:04:28.924Z,19.11
2022-09-20T23:06:55.527Z,19.11
2022-09-20T23:09:22.935Z,19.12
2022-09-20T23:11:49.308Z,19.09
2022-09-20T23:14:16.971Z,19.10
2022-09-20T23:16:45.198Z,19.08
2022-09-20T23:19:12.336Z,19.07
2022-09-20T23:21:39.458Z,19.05
2022-09-20T23:24:07.427Z,19.08
2022-09-20T23:26:34.713Z,19.08
2022-09-20T23:29:02.027Z,19.07
2022-09-20T23:31:29.208Z,19.07
2022-09-20T23:33:57.720Z,19.08
2022-09-20T23:36:24.701Z,19.06
2022-09-20T23:38:51.380Z,19.05
2022-09-20T23:41:18.654Z,19.06
2022-09-20T23:43:45.265Z,19.05
2022-09-20T23:46:12.305Z,19.04
2022-09-20T23:48:38.647Z,19.04
2022-09-20T23:51:06.508Z,19.02
2022-09-20T23:53:32.899Z,19.04
2022-09-20T23:55:59.300Z,19.03
2022-09-20T23:58:25.754Z,19.02
